Time;durP1;ratioP1;P1;durP2;ratioP2;P2;SDS_P1;SDS_P2;PMS_P1;PMS_P2;Temp;Humidity;BMP_temperature;BMP_pressure;BME280_temperature;BME280_humidity;BME280_pressure;Samples;Min_cycle;Max_cycle;Signal;HPM_P1;HPM_P2
2021/09/28 00:00:09;;;;;;;1.30;1.20;;;12.90;93.80;;;;;;5116718;28;20031;-74
2021/09/28 00:02:34;;;;;;;1.27;0.85;;;12.90;93.80;;;;;;5117043;28;20020;-74
2021/09/28 00:05:00;;;;;;;1.90;1.23;;;12.90;93.80;;;;;;5116871;28;20026;-74
2021/09/28 00:07:26;;;;;;;1.92;1.48;;;12.90;93.80;;;;;;5116991;28;20494;-74
2021/09/28 00:09:51;;;;;;;1.48;1.10;;;12.80;93.80;;;;;;5116669;28;20096;-74
2021/09/28 00:12:17;;;;;;;1.70;1.27;;;12.80;93.80;;;;;;5098630;28;20470;-73
2021/09/28 00:14:43;;;;;;;1.38;1.10;;;12.80;93.80;;;;;;5116489;28;20040;-74
2021/09/28 00:17:09;;;;;;;1.35;1.15;;;12.80;93.90;;;;;;5116609;28;20353;-73
2021/09/28 00:19:34;;;;;;;1.40;1.10;;;12.70;93.90;;;;;;5098360;28;20028;-74
2021/09/28 00:22:00;;;;;;;1.30;1.20;;;12.70;93.90;;;;;;5098421;28;20501;-74
2021/09/28 00:24:25;;;;;;;1.90;1.10;;;12.70;93.90;;;;;;5116412;28;20047;-74
2021/09/28 00:26:51;;;;;;;1.73;1.63;;;12.70;93.90;;;;;;5116555;28;20020;-74
2021/09/28 00:29:16;;;;;;;1.20;1.05;;;12.60;93.90;;;;;;5115842;28;20384;-73
2021/09/28 00:31:42;;;;;;;1.20;1.10;;;12.70;93.90;;;;;;5098134;28;20020;-73
2021/09/28 00:34:08;;;;;;;1.48;1.30;;;12.60;94.20;;;;;;5116492;28;20388;-74
2021/09/28 00:36:33;;;;;;;1.65;1.00;;;12.60;93.90;;;;;;5116348;28;20028;-74
2021/09/28 00:38:59;;;;;;;0.82;0.80;;;12.60;93.80;;;;;;5098098;28;20117;-75
2021/09/28 00:41:24;;;;;;;1.55;0.82;;;12.60;93.80;;;;;;5116262;28;20036;-74
2021/09/28 00:43:53;;;;;;;2.45;1.17;;;12.60;93.80;;;;;;5115893;28;20019;-73
2021/09/28 00:46:19;;;;;;;2.08;1.20;;;12.60;93.80;;;;;;5097775;28;20020;-72
2021/09/28 00:48:45;;;;;;;1.25;1.15;;;12.60;93.80;;;;;;5115648;28;20043;-73
2021/09/28 00:51:12;;;;;;;1.88;1.00;;;12.60;93.80;;;;;;5116133;28;20081;-73
2021/09/28 00:53:40;;;;;;;0.70;0.70;;;12.60;93.80;;;;;;5116065;28;20026;-73
2021/09/28 00:56:12;;;;;;;3.35;1.13;;;12.60;93.70;;;;;;5097682;28;20099;-74
2021/09/28 00:58:38;;;;;;;2.38;1.05;;;12.60;93.70;;;;;;5115518;28;20019;-73
2021/09/28 01:01:05;;;;;;;2.33;1.45;;;12.50;93.70;;;;;;5115776;28;20108;-74
2021/09/28 01:03:31;;;;;;;0.63;0.63;;;12.50;93.70;;;;;;5116073;28;20012;-73
2021/09/28 01:05:57;;;;;;;1.02;0.90;;;12.50;93.70;;;;;;5115683;28;20055;-73
2021/09/28 01:08:23;;;;;;;0.95;0.82;;;12.50;93.70;;;;;;5115639;28;20031;-73
2021/09/28 01:10:49;;;;;;;2.60;1.40;;;12.50;93.70;;;;;;5115703;28;20040;-73
2021/09/28 01:13:14;;;;;;;1.45;1.00;;;12.50;93.70;;;;;;5115212;28;20028;-74
2021/09/28 01:16:01;;;;;;;1.58;1.25;;;12.50;93.70;;;;;;5115750;28;20024;-73
2021/09/28 01:18:32;;;;;;;1.88;1.30;;;12.40;93.80;;;;;;5115446;28;20020;-74
2021/09/28 01:21:01;;;;;;;1.00;0.82;;;12.40;93.80;;;;;;5115534;28;20097;-74
2021/09/28 01:23:26;;;;;;;2.45;1.20;;;12.40;93.80;;;;;;5115416;28;20467;-72
2021/09/28 01:25:52;;;;;;;1.45;1.13;;;12.40;93.80;;;;;;5115527;28;20046;-73
2021/09/28 01:28:18;;;;;;;0.90;0.90;;;12.40;93.80;;;;;;5096588;28;20028;-74
2021/09/28 01:30:43;;;;;;;0.82;0.77;;;12.40;93.80;;;;;;5115252;28;20102;-74
2021/09/28 01:33:09;;;;;;;1.10;0.85;;;12.40;93.80;;;;;;5115265;28;20047;-74
2021/09/28 01:35:38;;;;;;;1.27;0.90;;;12.40;93.80;;;;;;5115117;28;20080;-74
2021/09/28 01:38:04;;;;;;;0.85;0.73;;;12.40;93.80;;;;;;5115272;28;20115;-74
2021/09/28 01:40:30;;;;;;;1.60;1.15;;;12.40;93.70;;;;;;5114928;28;20399;-74
2021/09/28 01:42:56;;;;;;;0.50;0.50;;;12.30;93.70;;;;;;5114624;28;20031;-74
2021/09/28 01:45:21;;;;;;;0.70;0.70;;;12.40;93.70;;;;;;5115097;28;20425;-73
2021/09/28 01:47:47;;;;;;;0.90;0.90;;;12.40;93.70;;;;;;5114986;28;20102;-73
2021/09/28 01:50:13;;;;;;;1.65;1.00;;;12.30;93.70;;;;;;5114881;28;20396;-74
2021/09/28 01:52:39;;;;;;;1.23;1.00;;;12.30;93.70;;;;;;5114942;28;20107;-74
2021/09/28 01:55:06;;;;;;;3.25;1.25;;;12.30;93.70;;;;;;5096757;28;20020;-74
2021/09/28 01:57:33;;;;;;;1.00;0.90;;;12.30;93.70;;;;;;5114251;28;20526;-75
2021/09/28 01:59:59;;;;;;;1.17;1.00;;;12.30;93.80;;;;;;5114432;28;20044;-74
2021/09/28 02:02:25;;;;;;;1.10;1.00;;;12.30;93.80;;;;;;5095567;28;20031;-74
2021/09/28 02:04:51;;;;;;;1.30;1.10;;;12.30;93.80;;;;;;5114703;28;20464;-74
2021/09/28 02:07:17;;;;;;;0.82;0.60;;;12.20;93.80;;;;;;5114682;28;20027;-73
2021/09/28 02:09:42;;;;;;;1.05;0.80;;;12.20;93.80;;;;;;5096100;28;20488;-74
2021/09/28 02:12:08;;;;;;;4.38;1.95;;;12.20;93.80;;;;;;5114100;28;20069;-74
2021/09/28 02:14:34;;;;;;;1.98;1.00;;;12.20;93.80;;;;;;5114433;28;20027;-73
2021/09/28 02:16:59;;;;;;;1.20;0.90;;;12.20;93.70;;;;;;5114452;28;20491;-75
2021/09/28 02:19:25;;;;;;;2.53;1.20;;;12.20;93.80;;;;;;5114406;28;20027;-74
2021/09/28 02:21:50;;;;;;;1.20;1.10;;;12.20;93.80;;;;;;5114303;28;20472;-74
2021/09/28 02:24:16;;;;;;;1.15;1.02;;;12.10;93.80;;;;;;5095989;28;20020;-74
2021/09/28 02:26:43;;;;;;;1.77;1.20;;;12.10;93.80;;;;;;5095401;28;20031;-74
2021/09/28 02:29:10;;;;;;;0.80;0.80;;;12.10;93.80;;;;;;5114235;28;20019;-73
2021/09/28 02:31:36;;;;;;;1.05;0.80;;;12.10;93.80;;;;;;5114178;28;20035;-74
2021/09/28 02:34:06;;;;;;;0.77;0.75;;;12.10;93.80;;;;;;5114313;28;20027;-74
2021/09/28 02:36:35;;;;;;;1.20;0.90;;;12.10;93.80;;;;;;5114079;28;20023;-74
2021/09/28 02:39:01;;;;;;;0.82;0.73;;;12.10;93.80;;;;;;5114105;28;20095;-74
2021/09/28 02:41:26;;;;;;;2.65;1.17;;;12.10;93.80;;;;;;5113437;28;20123;-73
2021/09/28 02:43:52;;;;;;;1.20;0.90;;;12.00;93.80;;;;;;5114028;28;20384;-74
2021/09/28 02:46:17;;;;;;;1.75;0.65;;;12.00;93.80;;;;;;5113943;28;20428;-75
2021/09/28 02:48:43;;;;;;;1.13;1.00;;;12.00;93.70;;;;;;5113936;28;20391;-73
2021/09/28 02:51:08;;;;;;;0.55;0.55;;;12.00;93.70;;;;;;5113991;28;20085;-74
2021/09/28 02:53:34;;;;;;;1.15;0.85;;;12.00;93.70;;;;;;5114113;28;20030;-75
2021/09/28 02:55:59;;;;;;;1.15;0.70;;;12.00;93.70;;;;;;5113432;28;20022;-74
2021/09/28 02:58:25;;;;;;;0.68;0.68;;;12.00;93.60;;;;;;5095612;28;20428;-74
2021/09/28 03:00:51;;;;;;;0.57;0.57;;;12.00;93.60;;;;;;5095503;28;20080;-74
2021/09/28 03:03:16;;;;;;;1.58;0.88;;;11.90;93.60;;;;;;5113795;28;20023;-73
2021/09/28 03:05:42;;;;;;;0.60;0.60;;;11.90;93.60;;;;;;5113817;28;20403;-73
2021/09/28 03:08:07;;;;;;;0.43;0.43;;;11.90;93.60;;;;;;5113771;28;20379;-73
2021/09/28 03:10:33;;;;;;;0.47;0.47;;;11.90;93.60;;;;;;5113121;28;20123;-74
2021/09/28 03:12:59;;;;;;;1.55;0.65;;;11.80;93.60;;;;;;5113277;28;20468;-74
2021/09/28 03:15:24;;;;;;;0.38;0.38;;;11.80;93.60;;;;;;5113582;28;20035;-74
2021/09/28 03:17:50;;;;;;;0.43;0.43;;;11.80;93.60;;;;;;5095299;28;20023;-74
2021/09/28 03:20:15;;;;;;;0.38;0.38;;;11.80;93.60;;;;;;5113517;28;20031;-74
2021/09/28 03:22:41;;;;;;;0.43;0.43;;;11.70;93.60;;;;;;5113460;28;20375;-74
2021/09/28 03:25:07;;;;;;;1.33;1.13;;;11.70;93.60;;;;;;5113073;28;20027;-74
2021/09/28 03:27:33;;;;;;;1.65;0.70;;;11.70;93.70;;;;;;5113432;28;20020;-73
2021/09/28 03:29:58;;;;;;;2.83;1.27;;;11.70;93.60;;;;;;5113432;28;20085;-74
2021/09/28 03:32:24;;;;;;;0.52;0.50;;;11.70;93.60;;;;;;5113577;28;20372;-75
2021/09/28 03:34:49;;;;;;;0.60;0.60;;;11.70;93.70;;;;;;5113397;28;20464;-74
2021/09/28 03:37:18;;;;;;;0.55;0.55;;;11.60;93.60;;;;;;5113387;28;20016;-74
2021/09/28 03:39:44;;;;;;;0.73;0.73;;;11.60;93.60;;;;;;5113431;28;20024;-74
2021/09/28 03:42:09;;;;;;;0.60;0.60;;;11.60;93.60;;;;;;5113317;28;20101;-74
2021/09/28 03:44:35;;;;;;;0.65;0.65;;;11.60;93.70;;;;;;5095128;28;20082;-74
2021/09/28 03:47:00;;;;;;;1.00;0.90;;;11.60;93.70;;;;;;5113299;28;20035;-73
2021/09/28 03:49:26;;;;;;;1.10;1.00;;;11.60;93.70;;;;;;5113272;28;20027;-73
2021/09/28 03:51:51;;;;;;;1.15;0.70;;;11.70;93.70;;;;;;5112897;28;20023;-74
2021/09/28 03:54:17;;;;;;;1.13;0.90;;;11.60;93.70;;;;;;5094875;28;20412;-74
2021/09/28 03:56:42;;;;;;;1.20;0.90;;;11.60;93.70;;;;;;5113090;28;20391;-73
2021/09/28 03:59:08;;;;;;;0.95;0.93;;;11.60;93.70;;;;;;5113130;28;20012;-73
2021/09/28 04:01:34;;;;;;;0.88;0.65;;;11.60;93.70;;;;;;5113133;28;20480;-74
2021/09/28 04:03:59;;;;;;;0.50;0.50;;;11.60;93.70;;;;;;5113086;28;20573;-75
2021/09/28 04:06:25;;;;;;;1.05;0.80;;;11.60;93.70;;;;;;5112670;28;20032;-74
2021/09/28 04:08:50;;;;;;;0.82;0.80;;;11.60;93.70;;;;;;5094860;28;20085;-73
2021/09/28 04:11:16;;;;;;;1.45;1.05;;;11.60;93.70;;;;;;5112886;28;20051;-75
2021/09/28 04:13:43;;;;;;;0.75;0.75;;;11.60;93.70;;;;;;5113106;28;20019;-75
2021/09/28 04:16:09;;;;;;;1.13;0.90;;;11.60;93.70;;;;;;5113067;28;20428;-75
2021/09/28 04:18:35;;;;;;;0.63;0.60;;;11.60;93.80;;;;;;5113011;28;20023;-73
2021/09/28 04:21:01;;;;;;;1.02;0.80;;;11.60;93.70;;;;;;5112431;28;20039;-74
2021/09/28 04:23:26;;;;;;;2.00;1.52;;;11.50;93.80;;;;;;5112982;28;20024;-74
2021/09/28 04:25:52;;;;;;;0.93;0.88;;;11.50;93.80;;;;;;5098151;28;20375;-74
2021/09/28 04:28:17;;;;;;;2.60;0.85;;;11.50;93.80;;;;;;5116486;28;20031;-74
2021/09/28 04:30:43;;;;;;;1.40;0.82;;;11.50;93.90;;;;;;5116345;28;20480;-74
2021/09/28 04:33:09;;;;;;;0.80;0.80;;;11.50;93.90;;;;;;5116489;28;20482;-73
2021/09/28 04:35:34;;;;;;;0.70;0.70;;;11.50;93.90;;;;;;5116180;28;20024;-75
2021/09/28 04:38:00;;;;;;;0.75;0.75;;;11.40;93.90;;;;;;5116543;28;20379;-74
2021/09/28 04:40:25;;;;;;;0.98;0.68;;;11.50;93.90;;;;;;5116269;28;20036;-74
2021/09/28 04:42:51;;;;;;;0.93;0.80;;;11.50;93.90;;;;;;5098211;28;20494;-73
2021/09/28 04:45:17;;;;;;;0.93;0.73;;;11.50;93.90;;;;;;5116624;28;20106;-73
2021/09/28 04:47:43;;;;;;;2.33;0.95;;;11.40;93.90;;;;;;5098085;28;20103;-73
2021/09/28 04:50:09;;;;;;;0.88;0.80;;;11.40;93.90;;;;;;5115829;28;20103;-74
2021/09/28 04:52:36;;;;;;;1.52;1.15;;;11.40;93.90;;;;;;5116083;28;20023;-74
2021/09/28 04:55:05;;;;;;;0.95;0.52;;;11.40;93.80;;;;;;5116146;28;20089;-74
2021/09/28 04:57:31;;;;;;;0.70;0.70;;;11.50;93.80;;;;;;5116147;28;20058;-75
2021/09/28 05:00:00;;;;;;;0.65;0.65;;;11.40;93.80;;;;;;5115979;28;20054;-73
2021/09/28 05:02:25;;;;;;;0.77;0.70;;;11.40;93.80;;;;;;5116423;28;20471;-73
2021/09/28 05:04:51;;;;;;;0.55;0.43;;;11.40;93.80;;;;;;5115347;28;20069;-73
2021/09/28 05:07:16;;;;;;;1.15;0.70;;;11.40;93.80;;;;;;5115837;28;20031;-73
2021/09/28 05:09:43;;;;;;;1.10;0.73;;;11.40;93.80;;;;;;5115580;28;20419;-73
2021/09/28 05:12:09;;;;;;;0.82;0.70;;;11.40;93.80;;;;;;5097480;28;20140;-73
2021/09/28 05:14:35;;;;;;;0.90;0.68;;;11.40;93.80;;;;;;5115811;28;20032;-73
2021/09/28 05:17:00;;;;;;;0.70;0.55;;;11.40;93.70;;;;;;5097365;28;20024;-75
2021/09/28 05:19:26;;;;;;;0.93;0.70;;;11.40;93.70;;;;;;5096790;28;20012;-80
2021/09/28 05:21:52;;;;;;;1.45;0.60;;;11.40;93.70;;;;;;5115611;28;20036;-76
2021/09/28 05:24:17;;;;;;;1.35;1.15;;;11.40;93.70;;;;;;5115386;28;20102;-75
2021/09/28 05:26:43;;;;;;;0.73;0.68;;;11.40;93.80;;;;;;5097122;28;20068;-77
2021/09/28 05:29:08;;;;;;;0.88;0.88;;;11.40;93.80;;;;;;5097117;28;20034;-74
2021/09/28 05:31:34;;;;;;;0.80;0.80;;;11.40;93.80;;;;;;5115456;28;20016;-75
2021/09/28 05:33:59;;;;;;;0.65;0.50;;;11.40;93.70;;;;;;5114921;28;20020;-77
2021/09/28 05:36:25;;;;;;;0.43;0.43;;;11.40;93.70;;;;;;5115183;28;20029;-78
2021/09/28 05:38:51;;;;;;;0.63;0.50;;;11.40;93.70;;;;;;5115295;28;20020;-77
2021/09/28 05:41:16;;;;;;;0.40;0.32;;;11.40;93.70;;;;;;5096864;28;20058;-77
2021/09/28 05:43:42;;;;;;;0.38;0.32;;;11.40;93.60;;;;;;5115136;28;20019;-75
2021/09/28 05:46:07;;;;;;;1.13;0.38;;;11.40;93.60;;;;;;5096915;28;20060;-75
2021/09/28 05:48:33;;;;;;;0.32;0.32;;;11.40;93.60;;;;;;5114694;28;20032;-76
2021/09/28 05:50:59;;;;;;;0.45;0.45;;;11.40;93.60;;;;;;5114972;28;20111;-75
2021/09/28 05:53:26;;;;;;;0.30;0.30;;;11.40;93.60;;;;;;5115029;28;20070;-76
2021/09/28 05:55:53;;;;;;;0.52;0.50;;;11.40;93.70;;;;;;5115165;28;20027;-77
2021/09/28 05:58:18;;;;;;;0.40;0.40;;;11.40;93.70;;;;;;5114838;28;20065;-77
2021/09/28 06:00:44;;;;;;;0.40;0.40;;;11.40;93.70;;;;;;5114509;28;20031;-78
2021/09/28 06:03:09;;;;;;;0.80;0.80;;;11.40;93.70;;;;;;5095980;28;20019;-78
2021/09/28 06:05:36;;;;;;;0.28;0.28;;;11.40;93.70;;;;;;5096452;28;20492;-77
2021/09/28 06:08:02;;;;;;;0.40;0.40;;;11.40;93.70;;;;;;5114613;28;20020;-76
2021/09/28 06:10:27;;;;;;;0.60;0.60;;;11.50;93.70;;;;;;5114354;28;20043;-77
2021/09/28 06:12:53;;;;;;;0.20;0.20;;;11.50;93.70;;;;;;5114432;28;20033;-76
2021/09/28 06:15:18;;;;;;;0.40;0.40;;;11.50;93.70;;;;;;5114544;28;20099;-77
2021/09/28 06:17:44;;;;;;;0.20;0.20;;;11.50;93.70;;;;;;5095768;28;20049;-76
2021/09/28 06:20:10;;;;;;;0.40;0.40;;;11.50;93.70;;;;;;5114499;28;20020;-75
2021/09/28 06:22:36;;;;;;;0.30;0.30;;;11.60;93.70;;;;;;5114229;28;20055;-76
2021/09/28 06:25:02;;;;;;;0.55;0.55;;;11.60;93.60;;;;;;5114226;28;20022;-73
2021/09/28 06:27:28;;;;;;;0.50;0.50;;;11.60;93.60;;;;;;5114332;28;20070;-75
2021/09/28 06:29:53;;;;;;;0.43;0.40;;;11.60;93.70;;;;;;5114309;28;20495;-74
2021/09/28 06:32:22;;;;;;;0.40;0.40;;;11.60;93.60;;;;;;5113720;28;20085;-73
2021/09/28 06:34:48;;;;;;;0.70;0.70;;;11.60;93.60;;;;;;5114530;28;20525;-74
2021/09/28 06:37:14;;;;;;;0.50;0.50;;;11.70;93.70;;;;;;5116601;28;20058;-73
2021/09/28 06:39:40;;;;;;;0.45;0.45;;;11.70;93.70;;;;;;5114131;28;20026;-73
2021/09/28 06:42:06;;;;;;;0.50;0.50;;;11.70;93.70;;;;;;5113971;28;20036;-74
2021/09/28 06:44:31;;;;;;;0.47;0.40;;;11.80;93.70;;;;;;5114122;28;20091;-74
2021/09/28 06:46:57;;;;;;;0.55;0.55;;;11.80;93.70;;;;;;5113140;28;20046;-73
2021/09/28 06:49:23;;;;;;;0.63;0.63;;;11.80;93.70;;;;;;5095905;28;20020;-72
2021/09/28 06:51:48;;;;;;;1.13;0.55;;;11.90;93.70;;;;;;5113919;28;20491;-73
2021/09/28 06:54:14;;;;;;;0.75;0.55;;;11.90;93.70;;;;;;5113916;28;20374;-74
2021/09/28 06:56:41;;;;;;;0.40;0.40;;;11.90;93.70;;;;;;5095537;28;20019;-73
2021/09/28 06:59:08;;;;;;;1.85;0.60;;;12.00;93.80;;;;;;5113950;28;20031;-74
2021/09/28 07:01:43;;;;;;;0.30;0.30;;;12.00;93.70;;;;;;5113192;28;20035;-74
2021/09/28 07:04:08;;;;;;;0.65;0.65;;;12.00;93.70;;;;;;5113869;28;20024;-74
2021/09/28 07:06:34;;;;;;;0.73;0.60;;;12.00;93.80;;;;;;5095426;28;20028;-74
2021/09/28 07:09:00;;;;;;;0.85;0.73;;;12.10;93.80;;;;;;5114000;28;20134;-74
2021/09/28 07:11:26;;;;;;;2.17;0.90;;;12.10;93.90;;;;;;5113643;28;20411;-73
2021/09/28 07:13:52;;;;;;;1.08;0.70;;;12.10;93.90;;;;;;5113612;28;20099;-73
2021/09/28 07:16:18;;;;;;;1.05;0.88;;;12.10;93.90;;;;;;5113048;28;20491;-73
2021/09/28 07:18:44;;;;;;;3.05;1.15;;;12.10;93.90;;;;;;5113354;28;20034;-73
2021/09/28 07:21:10;;;;;;;0.85;0.77;;;12.20;93.90;;;;;;5113350;28;20028;-74
2021/09/28 07:23:36;;;;;;;0.95;0.65;;;12.30;93.90;;;;;;5095228;28;20031;-72
2021/09/28 07:26:02;;;;;;;1.00;0.73;;;12.30;93.90;;;;;;5113530;28;20024;-73
2021/09/28 07:28:28;;;;;;;1.52;0.98;;;12.30;93.90;;;;;;5095175;28;20015;-77
2021/09/28 07:30:53;;;;;;;1.48;0.70;;;12.40;93.90;;;;;;5112941;28;20543;-74
2021/09/28 07:33:19;;;;;;;1.05;0.80;;;12.40;93.90;;;;;;5113527;28;20085;-74
2021/09/28 07:35:46;;;;;;;1.52;1.00;;;12.50;94.00;;;;;;5113365;28;20023;-73
2021/09/28 07:38:12;;;;;;;2.55;1.45;;;12.50;94.00;;;;;;5113469;28;20056;-74
2021/09/28 07:40:40;;;;;;;0.77;0.75;;;12.50;94.00;;;;;;5113241;28;20096;-72
2021/09/28 07:43:06;;;;;;;1.45;0.85;;;12.60;94.00;;;;;;5113302;28;20047;-73
2021/09/28 07:45:31;;;;;;;1.15;0.85;;;12.60;94.10;;;;;;5094763;28;20058;-73
2021/09/28 07:47:57;;;;;;;3.03;0.98;;;12.70;94.10;;;;;;5113338;28;20024;-73
2021/09/28 07:50:23;;;;;;;2.40;0.80;;;12.80;94.00;;;;;;5113199;28;20487;-73
2021/09/28 07:52:48;;;;;;;0.70;0.70;;;12.80;94.00;;;;;;5113183;28;20031;-73
2021/09/28 07:55:14;;;;;;;1.30;1.00;;;12.90;94.10;;;;;;5094985;28;20077;-74
2021/09/28 07:57:39;;;;;;;1.25;1.10;;;12.90;94.10;;;;;;5113305;28;20023;-74
2021/09/28 08:00:07;;;;;;;3.58;1.40;;;13.00;94.10;;;;;;5115337;28;20490;-74
2021/09/28 08:02:34;;;;;;;2.75;1.20;;;13.10;94.10;;;;;;5116916;28;20024;-74
2021/09/28 08:05:00;;;;;;;1.30;0.70;;;13.10;94.10;;;;;;5116837;28;20020;-74
2021/09/28 08:07:26;;;;;;;2.95;1.00;;;13.20;94.10;;;;;;5117085;28;20064;-73
2021/09/28 08:09:51;;;;;;;1.52;0.98;;;13.30;94.10;;;;;;5116793;28;20032;-74
2021/09/28 08:12:17;;;;;;;1.63;0.85;;;13.40;94.10;;;;;;5116968;28;20379;-73
2021/09/28 08:14:42;;;;;;;1.52;1.05;;;13.40;94.10;;;;;;5098085;28;20057;-74
2021/09/28 08:17:08;;;;;;;2.28;0.90;;;13.40;94.10;;;;;;5116797;28;20023;-74
2021/09/28 08:19:35;;;;;;;0.98;0.77;;;13.50;94.10;;;;;;5116726;28;20073;-75
2021/09/28 08:22:03;;;;;;;4.82;1.38;;;13.60;94.10;;;;;;5116702;28;20023;-76
2021/09/28 08:24:35;;;;;;;1.98;1.10;;;13.60;94.10;;;;;;5116650;28;20026;-74
2021/09/28 08:29:45;;;;;;;1.45;1.00;;;13.70;94.10;;;;;;5117015;28;20038;-75
2021/09/28 08:32:12;;;;;;;2.50;1.42;;;13.70;94.10;;;;;;5116528;28;20379;-76
2021/09/28 08:34:37;;;;;;;2.03;1.10;;;13.80;94.10;;;;;;5116543;28;20023;-73
2021/09/28 08:37:04;;;;;;;1.35;0.90;;;13.90;94.20;;;;;;5116492;28;20027;-75
2021/09/28 08:39:30;;;;;;;2.03;1.40;;;13.90;94.10;;;;;;5116453;28;20375;-74
2021/09/28 08:41:57;;;;;;;1.30;1.00;;;13.90;94.10;;;;;;5115779;28;20035;-77
2021/09/28 08:44:23;;;;;;;1.13;1.00;;;14.00;94.20;;;;;;5116093;28;20019;-75
2021/09/28 08:46:49;;;;;;;0.77;0.77;;;14.10;94.20;;;;;;5116304;28;20034;-74
2021/09/28 08:49:19;;;;;;;2.00;0.90;;;14.10;94.10;;;;;;5116320;28;20020;-74
2021/09/28 08:51:46;;;;;;;1.10;1.05;;;14.20;94.20;;;;;;5116114;28;20024;-77
2021/09/28 08:54:12;;;;;;;1.98;1.08;;;14.30;94.20;;;;;;5116146;28;20112;-75
2021/09/28 08:56:37;;;;;;;1.02;0.93;;;14.40;94.10;;;;;;5097433;28;20069;-76
2021/09/28 08:59:05;;;;;;;1.50;1.40;;;14.40;94.10;;;;;;5097715;28;20577;-77
2021/09/28 09:01:33;;;;;;;1.05;0.90;;;14.50;94.10;;;;;;5115835;28;20110;-75
2021/09/28 09:04:15;;;;;;;1.30;1.05;;;14.60;94.40;;;;;;5115927;28;20047;-76
2021/09/28 09:06:41;;;;;;;1.92;1.15;;;14.70;94.10;;;;;;5115970;28;20023;-77
2021/09/28 09:09:07;;;;;;;1.35;1.25;;;14.70;94.10;;;;;;5115694;28;20157;-75
2021/09/28 09:11:41;;;;;;;1.35;1.20;;;14.80;94.10;;;;;;5114867;28;20028;-75
2021/09/28 09:14:24;;;;;;;1.17;1.08;;;14.90;94.10;;;;;;5115828;28;20023;-76
2021/09/28 09:16:55;;;;;;;0.70;0.70;;;14.90;94.10;;;;;;5097607;28;20055;-75
2021/09/28 09:19:29;;;;;;;1.65;1.02;;;15.00;94.10;;;;;;5115539;28;20056;-76
2021/09/28 09:21:56;;;;;;;5.90;1.45;;;15.00;94.10;;;;;;5115605;28;20032;-76
2021/09/28 09:24:41;;;;;;;1.27;0.85;;;15.10;94.10;;;;;;5115364;28;20019;-74
2021/09/28 09:27:11;;;;;;;1.20;0.60;;;15.20;94.00;;;;;;5115032;28;20020;-76
2021/09/28 09:29:37;;;;;;;0.88;0.82;;;15.20;94.10;;;;;;5097194;28;20061;-77
2021/09/28 09:32:02;;;;;;;0.90;0.80;;;15.30;94.10;;;;;;5115551;28;20023;-77
2021/09/28 09:34:28;;;;;;;0.70;0.70;;;15.40;94.10;;;;;;5115095;28;20035;-77
2021/09/28 09:37:13;;;;;;;1.05;0.77;;;15.50;94.10;;;;;;5115496;28;20051;-76
2021/09/28 09:39:51;;;;;;;0.75;0.52;;;15.50;94.00;;;;;;5096458;28;20032;-76
2021/09/28 09:42:17;;;;;;;1.55;1.00;;;15.70;94.00;;;;;;5115324;28;20058;-76
2021/09/28 09:44:43;;;;;;;0.70;0.70;;;15.80;94.00;;;;;;5115273;28;20547;-76
2021/09/28 09:47:45;;;;;;;1.40;0.77;;;15.90;94.00;;;;;;5114962;28;20027;-76
2021/09/28 09:50:15;;;;;;;1.33;0.93;;;16.00;93.90;;;;;;5012493;28;20045;-77
2021/09/28 09:53:04;;;;;;;1.08;1.00;;;16.10;94.00;;;;;;4996285;28;20441;-76
2021/09/28 09:55:32;;;;;;;1.00;0.90;;;16.20;93.90;;;;;;4995710;28;20030;-76
2021/09/28 09:57:59;;;;;;;1.02;0.70;;;16.20;93.90;;;;;;5012457;28;20491;-76
2021/09/28 10:00:25;;;;;;;1.00;0.88;;;16.20;93.90;;;;;;5012426;28;20122;-77
2021/09/28 10:02:51;;;;;;;1.45;0.80;;;16.20;93.90;;;;;;5012461;28;20030;-79
2021/09/28 10:05:18;;;;;;;0.80;0.68;;;16.30;94.00;;;;;;5012288;28;20038;-79
2021/09/28 10:07:45;;;;;;;0.80;0.80;;;16.30;93.90;;;;;;5012223;28;20441;-78
2021/09/28 10:10:18;;;;;;;1.33;0.90;;;16.30;93.90;;;;;;4995374;28;20119;-77
2021/09/28 10:12:43;;;;;;;0.73;0.73;;;16.30;93.90;;;;;;5012549;28;20029;-76
2021/09/28 10:15:17;;;;;;;1.05;0.60;;;16.30;93.90;;;;;;5012504;28;20030;-77
2021/09/28 10:17:49;;;;;;;2.92;0.75;;;16.40;93.90;;;;;;5012128;28;20041;-78
2021/09/28 10:20:20;;;;;;;1.30;1.17;;;16.50;93.90;;;;;;5012171;28;20394;-77
2021/09/28 10:22:52;;;;;;;1.55;0.80;;;16.60;93.90;;;;;;5011410;28;20069;-79
2021/09/28 10:25:21;;;;;;;0.88;0.65;;;16.60;93.90;;;;;;5112483;28;20028;-79
2021/09/28 10:27:56;;;;;;;0.55;0.55;;;16.60;93.90;;;;;;5114406;28;20094;-78
2021/09/28 10:30:38;;;;;;;0.40;0.40;;;16.70;93.90;;;;;;5114138;28;20019;-78
2021/09/28 10:33:22;;;;;;;0.85;0.82;;;16.70;93.80;;;;;;5114458;28;20372;-78
2021/09/28 10:36:07;;;;;;;0.50;0.50;;;16.80;93.80;;;;;;5114204;28;20094;-77
2021/09/28 10:38:53;;;;;;;1.13;0.88;;;16.90;93.80;;;;;;5114024;28;20031;-78
2021/09/28 10:41:42;;;;;;;0.73;0.55;;;16.90;93.80;;;;;;5113951;28;20084;-77
2021/09/28 10:44:26;;;;;;;0.57;0.57;;;17.00;93.80;;;;;;5114118;28;20030;-79
2021/09/28 10:46:56;;;;;;;1.02;0.85;;;17.10;93.80;;;;;;5095728;28;20466;-78
2021/09/28 10:49:29;;;;;;;2.58;0.98;;;17.10;93.70;;;;;;5113954;28;20020;-78
2021/09/28 10:52:20;;;;;;;1.08;0.85;;;17.10;93.70;;;;;;5113901;28;20019;-77
2021/09/28 10:55:08;;;;;;;1.05;0.70;;;17.20;93.70;;;;;;5113817;28;20103;-77
2021/09/28 10:58:15;;;;;;;3.20;0.60;;;17.30;93.70;;;;;;5113944;28;20031;-76
2021/09/28 11:00:40;;;;;;;0.50;0.50;;;17.30;93.70;;;;;;5113815;28;20024;-78
2021/09/28 11:03:08;;;;;;;1.15;0.73;;;17.40;93.70;;;;;;5113824;28;20487;-78
2021/09/28 11:05:38;;;;;;;0.47;0.47;;;17.30;93.60;;;;;;5095586;28;20047;-78
2021/09/28 11:08:05;;;;;;;1.55;0.70;;;17.30;93.60;;;;;;5094936;28;20051;-77
2021/09/28 11:10:31;;;;;;;0.52;0.38;;;17.30;93.60;;;;;;5113471;28;20044;-78
2021/09/28 11:12:58;;;;;;;0.32;0.32;;;17.40;93.60;;;;;;5113772;28;20467;-78
2021/09/28 11:15:26;;;;;;;0.68;0.68;;;17.40;93.60;;;;;;5113861;28;20023;-78
2021/09/28 11:17:52;;;;;;;0.82;0.50;;;17.40;93.60;;;;;;5113876;28;20047;-78
2021/09/28 11:20:25;;;;;;;2.15;0.90;;;17.50;93.60;;;;;;5113852;28;20044;-77
2021/09/28 11:22:59;;;;;;;0.65;0.47;;;17.50;93.50;;;;;;5113104;28;20058;-78
2021/09/28 11:25:30;;;;;;;1.02;0.70;;;17.60;93.50;;;;;;5113492;28;20091;-78
2021/09/28 11:28:04;;;;;;;0.63;0.50;;;17.70;93.40;;;;;;5095313;28;20106;-78
2021/09/28 11:30:34;;;;;;;0.75;0.70;;;17.70;93.40;;;;;;5113651;28;20035;-77
2021/09/28 11:33:04;;;;;;;1.60;0.98;;;17.80;93.40;;;;;;5114133;28;20035;-77
2021/09/28 11:35:30;;;;;;;1.10;0.70;;;17.80;93.40;;;;;;5117757;28;20513;-77
2021/09/28 11:38:01;;;;;;;0.90;0.82;;;17.80;93.30;;;;;;5117128;28;20023;-76
2021/09/28 11:40:39;;;;;;;1.23;0.85;;;17.90;93.40;;;;;;5117725;28;20016;-77
2021/09/28 11:43:24;;;;;;;0.88;0.70;;;17.90;93.40;;;;;;5117414;28;20037;-77
2021/09/28 11:46:02;;;;;;;1.20;0.88;;;17.90;93.30;;;;;;5117623;28;20024;-76
2021/09/28 11:48:35;;;;;;;0.57;0.55;;;18.00;93.20;;;;;;5099599;28;20023;-77
2021/09/28 11:51:15;;;;;;;1.98;0.80;;;18.00;93.60;;;;;;5098615;28;20016;-77
2021/09/28 11:53:43;;;;;;;0.95;0.80;;;18.10;93.30;;;;;;5099041;28;20039;-76
2021/09/28 11:56:10;;;;;;;1.30;0.80;;;18.20;93.30;;;;;;5117255;28;20020;-76
2021/09/28 11:58:38;;;;;;;0.85;0.70;;;18.30;93.50;;;;;;5117415;28;20012;-76
2021/09/28 12:01:08;;;;;;;1.08;0.38;;;18.40;93.30;;;;;;5117051;28;20107;-76
2021/09/28 12:03:35;;;;;;;0.85;0.60;;;18.50;93.20;;;;;;5117246;28;20026;-77
2021/09/28 12:06:06;;;;;;;0.80;0.55;;;18.60;93.10;;;;;;5116578;28;20019;-79
2021/09/28 12:08:33;;;;;;;0.52;0.50;;;18.50;93.10;;;;;;5117402;28;20027;-78
2021/09/28 12:11:03;;;;;;;0.75;0.65;;;18.60;93.10;;;;;;5116709;28;20048;-78
2021/09/28 12:13:30;;;;;;;0.43;0.40;;;18.70;92.90;;;;;;5117124;28;20110;-77
2021/09/28 12:16:12;;;;;;;4.30;0.88;;;18.70;93.00;;;;;;5116830;28;20047;-75
2021/09/28 12:18:38;;;;;;;1.25;0.57;;;19.00;92.90;;;;;;5116807;28;20016;-78
2021/09/28 12:21:24;;;;;;;0.93;0.75;;;19.20;92.90;;;;;;5116104;28;20521;-78
2021/09/28 12:24:17;;;;;;;1.58;0.60;;;19.40;92.80;;;;;;5098506;28;20365;-77
2021/09/28 12:26:43;;;;;;;1.55;0.65;;;19.60;92.60;;;;;;5116901;28;20016;-78
2021/09/28 12:29:21;;;;;;;1.65;0.40;;;19.50;92.60;;;;;;5116447;28;20035;-78
2021/09/28 12:31:48;;;;;;;4.07;0.77;;;19.40;92.50;;;;;;5116554;28;20024;-76
2021/09/28 12:34:14;;;;;;;0.82;0.63;;;19.40;92.70;;;;;;5116119;28;20353;-76
2021/09/28 12:36:41;;;;;;;0.50;0.50;;;19.50;92.90;;;;;;5116544;28;20157;-77
2021/09/28 12:39:28;;;;;;;0.77;0.50;;;19.60;92.70;;;;;;5116708;28;20425;-76
2021/09/28 12:42:00;;;;;;;0.60;0.60;;;19.80;92.60;;;;;;5116263;28;20437;-76
2021/09/28 12:44:26;;;;;;;0.40;0.30;;;20.20;92.50;;;;;;5115658;28;20028;-78
2021/09/28 12:46:52;;;;;;;0.43;0.38;;;20.50;92.30;;;;;;5116090;28;20532;-76
2021/09/28 12:49:31;;;;;;;1.48;0.40;;;20.50;91.90;;;;;;5115688;28;20099;-76
2021/09/28 12:51:59;;;;;;;1.73;0.50;;;20.50;92.00;;;;;;5116005;28;20020;-76
2021/09/28 12:54:26;;;;;;;0.90;0.22;;;20.40;91.90;;;;;;5116208;28;20487;-75